createdAt,value
2022-08-10T00:00:58.132Z,90.29
2022-08-10T00:03:27.651Z,90.90
2022-08-10T00:05:56.759Z,91.31
2022-08-10T00:08:25.459Z,91.48
2022-08-10T00:10:55.533Z,90.90
2022-08-10T00:13:28.664Z,90.67
2022-08-10T00:15:58.256Z,90.41
2022-08-10T00:18:35.149Z,89.89
2022-08-10T00:21:07.606Z,89.51
2022-08-10T00:23:37.577Z,88.89
2022-08-10T00:26:10.312Z,88.34
2022-08-10T00:28:39.178Z,87.86
2022-08-10T00:31:08.798Z,87.60
2022-08-10T00:33:37.186Z,87.68
2022-08-10T00:36:05.839Z,87.40
2022-08-10T00:38:37.009Z,87.32
2022-08-10T00:41:05.866Z,87.04
2022-08-10T00:43:35.333Z,86.07
2022-08-10T00:46:04.669Z,85.66
2022-08-10T00:48:36.487Z,85.20
2022-08-10T00:51:06.832Z,85.68
2022-08-10T00:53:37.507Z,86.16
2022-08-10T00:57:07.871Z,86.14
2022-08-10T00:58:56.277Z,86.46
2022-08-10T01:02:08.246Z,86.39
2022-08-10T01:04:57.550Z,85.86
2022-08-10T01:07:23.294Z,86.11
2022-08-10T01:10:25.794Z,84.84
2022-08-10T01:13:08.096Z,85.63
2022-08-10T01:16:05.352Z,86.33
2022-08-10T01:18:50.056Z,87.44
2022-08-10T01:21:54.055Z,87.88
2022-08-10T01:24:45.159Z,88.90
2022-08-10T01:27:28.915Z,89.62
2022-08-10T01:30:09.098Z,90.33
2022-08-10T01:33:00.261Z,90.67
2022-08-10T01:35:38.410Z,91.91
2022-08-10T01:38:18.127Z,92.14
2022-08-10T01:40:52.421Z,92.24
2022-08-10T01:43:25.542Z,91.95
2022-08-10T01:46:00.162Z,91.23
2022-08-10T01:48:32.459Z,90.53
2022-08-10T01:51:22.092Z,90.59
2022-08-10T01:53:57.936Z,90.15
2022-08-10T01:56:32.202Z,90.54
2022-08-10T01:59:02.925Z,90.37
2022-08-10T02:01:38.510Z,90.75
2022-08-10T02:04:10.106Z,90.65
2022-08-10T02:06:53.631Z,90.95
2022-08-10T02:09:28.147Z,91.33
2022-08-10T02:12:08.181Z,91.06
2022-08-10T02:14:43.623Z,91.11
2022-08-10T02:17:57.310Z,90.90
2022-08-10T02:20:17.734Z,90.00
2022-08-10T02:23:03.344Z,88.76
2022-08-10T02:25:41.643Z,88.49
2022-08-10T02:28:30.404Z,88.64
2022-08-10T02:31:11.586Z,88.78
2022-08-10T02:33:56.298Z,88.62
2022-08-10T02:36:27.754Z,88.76
2022-08-10T02:39:01.130Z,87.56
2022-08-10T02:45:14.851Z,85.75
2022-08-10T02:45:19.058Z,85.86
2022-08-10T02:47:50.767Z,86.32
2022-08-10T02:50:40.247Z,86.18
2022-08-10T02:53:54.632Z,85.86
2022-08-10T02:56:15.275Z,87.06
2022-08-10T02:58:46.914Z,87.08
2022-08-10T03:01:21.000Z,87.03
2022-08-10T03:03:58.973Z,87.41
2022-08-10T03:06:35.131Z,87.73
2022-08-10T03:09:10.334Z,87.82
2022-08-10T03:12:35.150Z,88.18
2022-08-10T03:14:32.111Z,88.90
2022-08-10T03:17:02.812Z,89.25
2022-08-10T03:20:34.894Z,89.12
2022-08-10T03:22:26.075Z,89.47
2022-08-10T03:24:56.201Z,88.66
2022-08-10T03:27:24.786Z,89.10
2022-08-10T03:30:28.266Z,89.25
2022-08-10T03:32:46.971Z,89.22
2022-08-10T03:35:16.065Z,89.28
2022-08-10T03:37:45.917Z,88.26
2022-08-10T03:40:14.829Z,88.44
2022-08-10T03:42:47.408Z,88.39
2022-08-10T03:45:17.884Z,88.21
2022-08-10T03:47:48.711Z,87.98
2022-08-10T03:50:45.335Z,88.09
2022-08-10T03:53:08.346Z,88.42
2022-08-10T03:56:29.237Z,88.27
2022-08-10T03:58:42.604Z,87.81
2022-08-10T04:01:13.282Z,88.00
2022-08-10T04:03:43.054Z,87.85
2022-08-10T04:06:12.454Z,88.16
2022-08-10T04:08:44.986Z,87.59
2022-08-10T04:11:13.654Z,87.53
2022-08-10T04:13:42.641Z,87.67
2022-08-10T04:16:11.089Z,87.47
2022-08-10T04:18:39.615Z,87.31
2022-08-10T04:21:13.068Z,87.23
2022-08-10T04:23:44.665Z,87.08
2022-08-10T04:26:14.944Z,87.11
2022-08-10T04:28:44.318Z,86.60
2022-08-10T04:31:17.888Z,86.39
2022-08-10T04:33:51.327Z,86.29
2022-08-10T04:36:22.438Z,85.84
2022-08-10T04:38:54.199Z,85.70
2022-08-10T04:41:23.132Z,85.46
2022-08-10T04:43:53.318Z,85.08
2022-08-10T04:46:56.256Z,84.76
2022-08-10T04:49:40.332Z,83.12
2022-08-10T04:52:00.954Z,83.84
2022-08-10T04:54:30.408Z,84.36
2022-08-10T04:56:59.474Z,84.78
2022-08-10T04:59:28.874Z,84.57
2022-08-10T05:02:22.267Z,84.81
2022-08-10T05:04:46.454Z,84.21
2022-08-10T05:07:18.336Z,83.70
2022-08-10T05:10:04.531Z,83.23
2022-08-10T05:12:40.802Z,83.28
2022-08-10T05:15:15.088Z,83.18
2022-08-10T05:18:03.347Z,82.86
2022-08-10T05:20:32.288Z,82.52
2022-08-10T05:23:00.599Z,82.68
2022-08-10T05:25:29.379Z,83.10
2022-08-10T05:28:06.114Z,82.93
2022-08-10T05:30:35.066Z,82.99
2022-08-10T05:33:08.542Z,83.08
2022-08-10T05:35:55.380Z,81.42
2022-08-10T05:38:30.361Z,82.04
2022-08-10T05:40:59.920Z,81.51
2022-08-10T05:43:28.533Z,80.63
2022-08-10T05:46:19.567Z,81.00
2022-08-10T05:48:59.651Z,80.58
2022-08-10T05:51:30.457Z,80.21
2022-08-10T05:54:06.745Z,79.55
2022-08-10T05:56:54.908Z,77.83
2022-08-10T06:00:33.233Z,77.96
2022-08-10T06:02:41.004Z,78.19
2022-08-10T06:05:16.070Z,77.24
2022-08-10T06:07:54.551Z,77.02
2022-08-10T06:10:28.614Z,76.56
2022-08-10T06:13:30.906Z,74.20
2022-08-10T06:16:08.948Z,74.69
2022-08-10T06:18:37.588Z,75.29
2022-08-10T06:21:09.938Z,75.70
2022-08-10T06:23:39.803Z,75.26
2022-08-10T06:26:14.141Z,74.75
2022-08-10T06:29:10.858Z,73.95
2022-08-10T06:31:48.925Z,73.48
2022-08-10T06:34:49.848Z,72.97
2022-08-10T06:37:21.006Z,73.41
2022-08-10T06:39:51.933Z,73.84
2022-08-10T06:42:33.092Z,73.03
2022-08-10T06:45:08.183Z,72.19
2022-08-10T06:48:00.545Z,72.31
2022-08-10T06:50:58.005Z,72.59
2022-08-10T06:53:53.175Z,72.07
2022-08-10T06:56:36.536Z,71.65
2022-08-10T06:59:22.727Z,71.25
2022-08-10T07:01:59.528Z,72.00
2022-08-10T07:04:35.687Z,72.36
2022-08-10T07:07:07.875Z,73.09
2022-08-10T07:09:41.605Z,73.02
2022-08-10T07:12:16.463Z,72.43
2022-08-10T07:14:46.251Z,73.47
2022-08-10T07:17:19.373Z,74.85
2022-08-10T07:19:52.746Z,75.28
2022-08-10T07:23:01.255Z,75.20
2022-08-10T07:25:27.607Z,75.26
2022-08-10T07:28:01.848Z,75.68
2022-08-10T07:30:36.268Z,76.34
2022-08-10T07:33:06.950Z,76.79
2022-08-10T07:35:43.176Z,77.63
2022-08-10T07:38:19.487Z,77.29
2022-08-10T07:40:52.149Z,76.20
2022-08-10T07:43:25.821Z,75.00
2022-08-10T07:45:57.260Z,74.93
2022-08-10T07:48:29.078Z,75.09
2022-08-10T07:51:00.508Z,75.59
2022-08-10T07:53:36.226Z,75.82
2022-08-10T07:56:16.864Z,75.88
2022-08-10T07:59:06.537Z,75.72
2022-08-10T08:01:43.236Z,74.07
2022-08-10T08:04:15.360Z,72.85
2022-08-10T08:06:45.742Z,72.07
2022-08-10T08:09:14.252Z,73.03
2022-08-10T08:11:44.922Z,72.34
2022-08-10T08:14:15.835Z,71.82
2022-08-10T08:16:52.177Z,71.24
2022-08-10T08:19:28.015Z,71.11
2022-08-10T08:24:04.649Z,70.66
2022-08-10T08:24:57.794Z,70.61
2022-08-10T08:27:29.752Z,70.45
2022-08-10T08:30:00.188Z,70.14
2022-08-10T08:32:33.853Z,69.52
2022-08-10T08:35:08.560Z,69.77
2022-08-10T08:38:32.122Z,69.36
2022-08-10T08:40:38.333Z,68.44
2022-08-10T08:43:27.294Z,69.32
2022-08-10T08:46:07.580Z,69.55
2022-08-10T08:48:44.114Z,68.22
2022-08-10T08:52:09.293Z,69.50
2022-08-10T08:54:51.432Z,70.58
2022-08-10T08:58:04.512Z,70.81
2022-08-10T09:00:57.771Z,71.20
2022-08-10T09:03:48.009Z,72.13
2022-08-10T09:06:31.858Z,72.32
2022-08-10T09:09:20.251Z,71.81
2022-08-10T09:12:13.984Z,71.87
2022-08-10T09:15:06.176Z,71.81
2022-08-10T09:17:56.510Z,71.22
2022-08-10T09:20:45.827Z,72.18
2022-08-10T09:24:01.546Z,72.13
2022-08-10T09:26:45.917Z,72.19
2022-08-10T09:29:31.742Z,71.44
2022-08-10T09:36:17.487Z,71.62
2022-08-10T09:36:22.796Z,71.45
2022-08-10T09:38:18.634Z,71.11
2022-08-10T09:40:59.273Z,70.39
2022-08-10T09:43:47.005Z,71.36
2022-08-10T09:46:54.419Z,71.29
2022-08-10T09:50:04.389Z,71.15
2022-08-10T09:53:27.824Z,70.80
2022-08-10T09:56:29.085Z,71.29
2022-08-10T10:00:01.577Z,70.51
2022-08-10T10:02:30.019Z,70.90
2022-08-10T10:05:14.900Z,71.20
2022-08-10T10:07:51.873Z,70.66
2022-08-10T10:10:27.408Z,70.15
2022-08-10T10:13:01.650Z,70.23
2022-08-10T10:15:43.924Z,69.99
2022-08-10T10:18:23.237Z,69.73
2022-08-10T10:21:03.018Z,68.83
2022-08-10T10:24:19.782Z,67.79
2022-08-10T10:27:16.377Z,66.81
2022-08-10T10:30:00.992Z,66.29
2022-08-10T10:32:37.227Z,65.57
2022-08-10T10:35:09.428Z,65.64
2022-08-10T10:38:01.755Z,66.09
2022-08-10T10:40:59.684Z,65.44
2022-08-10T10:43:44.303Z,65.78
2022-08-10T10:46:19.930Z,66.36
2022-08-10T10:48:54.771Z,66.86
2022-08-10T10:51:28.038Z,67.06
2022-08-10T10:54:30.063Z,67.51
2022-08-10T10:57:19.587Z,66.40
2022-08-10T10:59:57.732Z,66.69
2022-08-10T11:02:36.703Z,66.57
2022-08-10T11:05:32.086Z,65.43
2022-08-10T11:08:08.480Z,65.20
2022-08-10T11:10:49.637Z,65.40
2022-08-10T11:14:24.456Z,64.72
2022-08-10T11:16:59.901Z,64.43
2022-08-10T11:20:14.415Z,64.98
2022-08-10T11:22:43.358Z,65.08
2022-08-10T11:25:21.033Z,64.36
2022-08-10T11:28:07.818Z,64.37
2022-08-10T11:30:40.170Z,64.14
2022-08-10T11:34:03.799Z,64.43
2022-08-10T11:36:48.311Z,64.67
2022-08-10T11:39:37.282Z,64.45
2022-08-10T11:42:40.057Z,63.30
2022-08-10T11:45:52.493Z,62.65
2022-08-10T11:49:02.121Z,63.15
2022-08-10T11:51:57.798Z,61.85
2022-08-10T11:54:50.905Z,61.22
2022-08-10T11:57:21.181Z,60.69
2022-08-10T11:59:59.509Z,60.83
2022-08-10T12:02:40.954Z,60.53
2022-08-10T12:05:16.603Z,59.25
2022-08-10T12:08:54.905Z,58.68
2022-08-10T12:10:41.103Z,57.75
2022-08-10T12:13:24.558Z,58.15
2022-08-10T12:16:15.187Z,58.33
2022-08-10T12:19:03.905Z,57.76
2022-08-10T12:21:45.774Z,56.67
2022-08-10T12:24:31.706Z,55.82
2022-08-10T12:27:13.015Z,55.92
2022-08-10T12:29:55.645Z,55.39
2022-08-10T12:32:54.050Z,55.19
2022-08-10T12:35:56.149Z,55.85
2022-08-10T12:38:48.757Z,56.02
2022-08-10T12:41:41.562Z,55.46
2022-08-10T12:44:18.360Z,55.85
2022-08-10T12:47:10.486Z,57.09
2022-08-10T12:50:29.241Z,56.03
2022-08-10T12:53:04.893Z,55.58
2022-08-10T12:55:39.275Z,54.71
2022-08-10T12:59:00.482Z,55.41
2022-08-10T13:01:16.253Z,55.60
2022-08-10T13:04:20.781Z,55.58
2022-08-10T13:06:46.448Z,55.21
2022-08-10T13:09:21.609Z,55.81
2022-08-10T13:12:39.233Z,55.02
2022-08-10T13:15:44.887Z,52.88
2022-08-10T13:18:00.277Z,53.16
2022-08-10T13:20:38.227Z,50.61
2022-08-10T13:23:17.937Z,51.41
2022-08-10T13:25:49.825Z,51.05
2022-08-10T13:28:49.601Z,49.84
2022-08-10T13:32:04.021Z,50.35
2022-08-10T13:34:40.044Z,50.11
2022-08-10T13:37:17.730Z,50.14
2022-08-10T13:39:57.808Z,50.03
2022-08-10T13:42:36.013Z,48.92
2022-08-10T13:45:11.114Z,48.91
2022-08-10T13:47:48.360Z,48.86
2022-08-10T13:50:33.595Z,48.63
2022-08-10T13:53:15.752Z,48.43
2022-08-10T13:55:55.368Z,48.03
2022-08-10T13:58:33.927Z,48.78
2022-08-10T14:01:12.841Z,48.18
2022-08-10T14:03:45.073Z,47.97
2022-08-10T14:06:20.887Z,49.18
2022-08-10T14:08:54.056Z,49.47
2022-08-10T14:11:26.252Z,49.71
2022-08-10T14:14:15.473Z,47.75
2022-08-10T14:16:48.532Z,48.06
2022-08-10T14:19:21.785Z,48.08
2022-08-10T14:21:51.418Z,48.99
2022-08-10T14:24:34.624Z,49.03
2022-08-10T14:27:07.211Z,48.10
2022-08-10T14:29:49.558Z,48.70
2022-08-10T14:32:23.783Z,48.28
2022-08-10T14:36:15.251Z,48.69
2022-08-10T14:37:50.291Z,49.31
2022-08-10T14:40:22.434Z,49.51
2022-08-10T14:43:02.131Z,49.87
2022-08-10T14:45:37.582Z,49.77
2022-08-10T14:48:21.290Z,49.47
2022-08-10T14:50:58.397Z,49.77
2022-08-10T14:53:35.350Z,50.30
2022-08-10T14:56:15.882Z,50.70
2022-08-10T14:59:05.666Z,52.21
2022-08-10T15:02:00.000Z,53.00
2022-08-10T15:04:29.321Z,51.77
2022-08-10T15:07:24.925Z,52.25
2022-08-10T15:10:01.653Z,53.10
2022-08-10T15:12:36.430Z,53.06
2022-08-10T15:15:08.648Z,53.45
2022-08-10T15:17:43.326Z,53.75
2022-08-10T15:20:21.211Z,54.06
2022-08-10T15:22:54.520Z,54.39
2022-08-10T15:25:26.300Z,54.12
2022-08-10T15:28:08.261Z,54.76
2022-08-10T15:30:43.390Z,54.68
2022-08-10T15:33:57.709Z,54.27
2022-08-10T15:36:46.830Z,54.31
2022-08-10T15:40:20.640Z,54.99
2022-08-10T15:42:27.211Z,54.78
2022-08-10T15:44:55.744Z,53.55
2022-08-10T15:47:46.271Z,53.59
2022-08-10T15:50:39.738Z,52.91
2022-08-10T15:53:15.645Z,52.88
2022-08-10T15:55:50.330Z,53.04
2022-08-10T15:58:37.600Z,53.10
2022-08-10T16:02:04.111Z,53.63
2022-08-10T16:04:09.037Z,53.58
2022-08-10T16:06:45.074Z,53.79
2022-08-10T16:10:24.277Z,53.37
2022-08-10T16:12:29.444Z,54.06
2022-08-10T16:15:04.485Z,54.26
2022-08-10T16:17:54.540Z,55.00
2022-08-10T16:20:33.714Z,55.78
2022-08-10T16:23:32.059Z,57.09
2022-08-10T16:26:13.524Z,58.04
2022-08-10T16:28:56.943Z,58.47
2022-08-10T16:31:30.859Z,59.50
2022-08-10T16:34:04.701Z,59.42
2022-08-10T16:36:48.688Z,59.27
2022-08-10T16:39:59.892Z,59.20
2022-08-10T16:42:27.922Z,59.62
2022-08-10T16:45:17.871Z,59.92
2022-08-10T16:47:49.561Z,60.05
2022-08-10T16:50:32.923Z,60.23
2022-08-10T16:53:03.565Z,60.61
2022-08-10T16:55:48.791Z,60.94
2022-08-10T16:58:39.680Z,60.70
2022-08-10T17:01:13.345Z,60.38
2022-08-10T17:04:07.415Z,60.27
2022-08-10T17:06:55.885Z,60.09
2022-08-10T17:09:32.158Z,60.27
2022-08-10T17:12:10.745Z,60.02
2022-08-10T17:14:41.715Z,60.14
2022-08-10T17:17:26.513Z,60.12
2022-08-10T17:20:32.141Z,60.16
2022-08-10T17:22:54.895Z,60.19
2022-08-10T17:25:48.538Z,60.57
2022-08-10T17:28:35.369Z,60.60
2022-08-10T17:31:39.711Z,60.85
2022-08-10T17:34:15.760Z,61.24
2022-08-10T17:36:49.706Z,61.61
2022-08-10T17:39:22.772Z,62.29
2022-08-10T17:41:55.303Z,63.36
2022-08-10T17:44:26.643Z,63.93
2022-08-10T17:46:56.369Z,65.01
2022-08-10T17:49:27.776Z,66.12
2022-08-10T17:51:59.437Z,66.11
2022-08-10T17:54:38.866Z,66.62
2022-08-10T17:57:12.839Z,66.94
2022-08-10T17:59:44.574Z,66.88
2022-08-10T18:02:23.552Z,67.02
2022-08-10T18:04:55.219Z,67.42
2022-08-10T18:07:39.231Z,67.61
2022-08-10T18:10:11.279Z,68.28
2022-08-10T18:12:44.917Z,68.43
2022-08-10T18:15:18.424Z,68.64
2022-08-10T18:17:52.500Z,68.75
2022-08-10T18:20:27.760Z,69.74
2022-08-10T18:22:59.370Z,69.86
2022-08-10T18:25:33.781Z,70.09
2022-08-10T18:28:06.008Z,70.44
2022-08-10T18:30:45.656Z,70.38
2022-08-10T18:33:16.609Z,70.65
2022-08-10T18:35:46.729Z,71.12
2022-08-10T18:38:17.656Z,71.77
2022-08-10T18:40:59.528Z,71.96
2022-08-10T18:44:07.323Z,72.87
2022-08-10T18:46:28.712Z,73.49
2022-08-10T18:49:06.617Z,73.72
2022-08-10T18:51:46.680Z,74.03
2022-08-10T18:54:39.028Z,73.93
2022-08-10T18:57:36.353Z,74.22
2022-08-10T19:00:13.444Z,74.16
2022-08-10T19:03:16.606Z,74.16
2022-08-10T19:06:07.979Z,74.21
2022-08-10T19:08:58.248Z,74.15
2022-08-10T19:11:49.010Z,73.81
2022-08-10T19:14:36.389Z,73.75
2022-08-10T19:17:12.068Z,74.24
2022-08-10T19:19:41.600Z,74.34
2022-08-10T19:22:37.268Z,74.71
2022-08-10T19:25:10.178Z,75.27
2022-08-10T19:27:52.754Z,75.54
2022-08-10T19:30:37.700Z,75.89
2022-08-10T19:33:16.632Z,76.56
2022-08-10T19:36:06.334Z,76.42
2022-08-10T19:38:59.211Z,76.38
2022-08-10T19:41:44.796Z,76.54
2022-08-10T19:44:48.782Z,77.33
2022-08-10T19:47:36.350Z,77.19
2022-08-10T19:50:13.691Z,77.54
2022-08-10T19:53:03.801Z,77.28
2022-08-10T19:55:43.448Z,77.36
2022-08-10T19:58:34.653Z,77.75
2022-08-10T20:01:07.114Z,77.57
2022-08-10T20:03:41.015Z,77.34
2022-08-10T20:06:21.002Z,76.84
2022-08-10T20:09:05.755Z,76.99
2022-08-10T20:12:08.192Z,77.18
2022-08-10T20:14:50.521Z,77.54
2022-08-10T20:17:52.112Z,77.68
2022-08-10T20:21:13.154Z,78.05
2022-08-10T20:23:53.903Z,78.24
2022-08-10T20:26:29.536Z,78.51
2022-08-10T20:29:10.104Z,78.55
2022-08-10T20:31:57.022Z,78.58
2022-08-10T20:34:39.070Z,78.95
2022-08-10T20:37:27.247Z,79.18
2022-08-10T20:40:18.758Z,79.44
2022-08-10T20:43:29.846Z,79.20
2022-08-10T20:46:09.269Z,79.53
2022-08-10T20:48:55.534Z,79.72
2022-08-10T20:51:58.810Z,79.94
2022-08-10T20:54:22.729Z,80.70
2022-08-10T20:57:56.511Z,80.57
2022-08-10T21:00:17.128Z,81.03
2022-08-10T21:02:51.584Z,80.65
2022-08-10T21:05:43.835Z,80.82
2022-08-10T21:08:12.159Z,80.89
2022-08-10T21:11:02.445Z,80.62
2022-08-10T21:13:49.714Z,80.99
2022-08-10T21:16:55.335Z,81.84
2022-08-10T21:19:55.812Z,83.11
2022-08-10T21:22:37.810Z,83.25
2022-08-10T21:25:30.029Z,83.15
2022-08-10T21:27:58.191Z,83.40
2022-08-10T21:30:42.125Z,84.40
2022-08-10T21:33:36.266Z,84.13
2022-08-10T21:36:18.559Z,83.42
2022-08-10T21:39:03.716Z,82.78
2022-08-10T21:42:22.290Z,82.90
2022-08-10T21:45:59.431Z,83.71
2022-08-10T21:49:14.524Z,85.61
2022-08-10T21:52:17.000Z,86.08
2022-08-10T21:55:13.609Z,85.86
2022-08-10T21:58:23.291Z,85.58
2022-08-10T22:01:39.440Z,85.34
2022-08-10T22:04:27.136Z,84.92
2022-08-10T22:07:16.799Z,84.15
2022-08-10T22:10:09.106Z,83.90
2022-08-10T22:13:01.032Z,83.66
2022-08-10T22:16:10.163Z,83.69
2022-08-10T22:19:03.938Z,83.97
2022-08-10T22:22:27.003Z,83.81
2022-08-10T22:25:41.313Z,84.96
2022-08-10T22:28:37.033Z,84.46
2022-08-10T22:31:36.675Z,84.51
2022-08-10T22:34:39.518Z,85.51
2022-08-10T22:37:48.283Z,86.10
2022-08-10T22:40:41.591Z,86.52
2022-08-10T22:43:40.540Z,88.38
2022-08-10T22:46:37.019Z,89.33
2022-08-10T22:49:06.800Z,89.72
2022-08-10T22:52:07.635Z,88.62
2022-08-10T22:55:07.993Z,86.91
2022-08-10T22:58:05.021Z,85.56
2022-08-10T23:00:34.323Z,84.79
2022-08-10T23:03:21.852Z,84.90
2022-08-10T23:05:55.207Z,85.25
2022-08-10T23:08:53.119Z,84.97
2022-08-10T23:11:35.789Z,85.20
2022-08-10T23:14:08.150Z,85.34
2022-08-10T23:17:09.260Z,85.84
2022-08-10T23:19:47.981Z,86.47
2022-08-10T23:22:21.072Z,86.52
2022-08-10T23:25:07.510Z,85.71
2022-08-10T23:27:40.626Z,86.10
2022-08-10T23:30:17.585Z,85.38
2022-08-10T23:32:59.338Z,85.05
2022-08-10T23:36:30.368Z,85.76
2022-08-10T23:38:23.160Z,85.68
2022-08-10T23:40:55.344Z,85.69
2022-08-10T23:44:00.398Z,86.40
2022-08-10T23:46:24.349Z,86.78
2022-08-10T23:48:56.519Z,86.72
2022-08-10T23:51:54.484Z,86.18
2022-08-10T23:54:25.223Z,85.34
2022-08-10T23:57:00.731Z,85.40
2022-08-10T23:59:32.784Z,85.70
